Big Bear Station Historical Data
Daily Summary for May 7, 2017 Units:  English    Metric   Both
« Previous Day
Next Day »
Daily Weekly Monthly Yearly Custom
  High: Low: Average:
Temperature: 41.5 °F 24.8 °F 30.4 °F
Dew Point: 31.4 °F 23.5 °F 27.1 °F
Humidity: 97 % 65 % 88 %
Wind Speed: 8.3 mph 0.0 mph 1.9 mph
Wind Gust: -999.0 mph - -
Wind:- - SSW
Pressure: 29.95 in 29.77 in -
Precipitation: 0.21 in    
Historical Graphs
 
 
Tabular Data for May 7, 2017
Time Temperature Dew Point Pressure Wind Wind Speed Wind Gust Humidity Rainfall Rate (Hourly)
00:01 25.9 °F 24.7 °F 29.78 in NNE 3.7 mph -999.0 mph 95 % 0 in
00:17 25.2 °F 23.5 °F 29.79 in SSE 7.3 mph -999.0 mph 93 % 0 in
00:32 25.3 °F 23.6 °F 29.79 in ENE 8.3 mph -999.0 mph 93 % 0 in
00:47 25.3 °F 23.6 °F 29.78 in South 3.2 mph -999.0 mph 93 % 0 in
01:03 25.2 °F 23.5 °F 29.78 in ESE 2.7 mph -999.0 mph 93 % 0 in
01:18 25.0 °F 24.0 °F 29.78 in South 2.2 mph -999.0 mph 96 % 0 in
01:33 25.0 °F 23.5 °F 29.78 in SSW 4.7 mph -999.0 mph 94 % 0 in
01:48 25.2 °F 23.7 °F 29.78 in SE 3.2 mph -999.0 mph 94 % 0 in
02:03 24.8 °F 23.6 °F 29.78 in NW 2.2 mph -999.0 mph 95 % 0 in
02:19 24.8 °F 23.8 °F 29.77 in North 4.2 mph -999.0 mph 96 % 0 in
02:34 25.2 °F 24.2 °F 29.78 in East 4.2 mph -999.0 mph 96 % 0 in
02:49 25.0 °F 24.0 °F 29.78 in SE 4.2 mph -999.0 mph 96 % 0 in
03:04 25.0 °F 24.0 °F 29.78 in Calm   -999.0 mph 96 % 0 in
03:20 25.2 °F 24.2 °F 29.78 in ESE 1.7 mph -999.0 mph 96 % 0 in
03:35 25.0 °F 24.0 °F 29.78 in NE 2.7 mph -999.0 mph 96 % 0 in
03:50 25.5 °F 24.8 °F 29.78 in WNW 1.1 mph -999.0 mph 97 % 0 in
04:05 25.7 °F 25.0 °F 29.78 in NNE 2.2 mph -999.0 mph 97 % 0 in
04:21 25.9 °F 24.7 °F 29.79 in WNW 2.7 mph -999.0 mph 95 % 0 in
04:36 26.1 °F 24.6 °F 29.79 in SSW 2.2 mph -999.0 mph 94 % 0 in
04:51 25.9 °F 24.4 °F 29.79 in SW 2.2 mph -999.0 mph 94 % 0 in
05:06 25.9 °F 24.7 °F 29.80 in Calm   -999.0 mph 95 % 0 in
05:22 25.9 °F 24.4 °F 29.81 in SSE 1.1 mph -999.0 mph 94 % 0 in
05:37 25.7 °F 24.0 °F 29.80 in SSE 4.2 mph -999.0 mph 93 % 0 in
05:52 25.9 °F 24.2 °F 29.81 in NE 2.2 mph -999.0 mph 93 % 0 in
06:07 26.2 °F 24.2 °F 29.82 in Calm   -999.0 mph 92 % 0 in
06:22 27.0 °F 25.0 °F 29.82 in Calm   -999.0 mph 92 % 0 in
06:38 27.0 °F 24.5 °F 29.82 in Calm   -999.0 mph 90 % 0 in
06:53 26.6 °F 24.1 °F 29.82 in Calm   -999.0 mph 90 % 0 in
07:08 26.6 °F 24.1 °F 29.82 in WNW 1.1 mph -999.0 mph 90 % 0 in
07:23 27.1 °F 24.8 °F 29.82 in Calm   -999.0 mph 91 % 0 in
07:39 28.0 °F 25.7 °F 29.82 in NNE 2.2 mph -999.0 mph 91 % 0 in
07:54 28.6 °F 26.0 °F 29.82 in NE 2.2 mph -999.0 mph 90 % 0 in
08:09 28.6 °F 26.0 °F 29.83 in South 1.7 mph -999.0 mph 90 % 0 in
08:24 28.9 °F 26.9 °F 29.83 in NW 1.1 mph -999.0 mph 92 % 0 in
08:39 31.1 °F 27.4 °F 29.84 in Calm   -999.0 mph 86 % 0 in
08:55 32.4 °F 29.2 °F 29.84 in WSW 2.2 mph -999.0 mph 88 % 0 in
09:10 32.0 °F 28.3 °F 29.84 in ESE 3.7 mph -999.0 mph 86 % 0 in
09:25 32.9 °F 29.2 °F 29.84 in WNW 2.7 mph -999.0 mph 86 % 0 in
09:41 32.4 °F 28.7 °F 29.84 in NNW 4.2 mph -999.0 mph 86 % 0 in
09:56 33.1 °F 29.4 °F 29.85 in Calm   -999.0 mph 86 % 0 in
10:11 34.2 °F 30.2 °F 29.85 in WNW 2.7 mph -999.0 mph 85 % 0 in
10:26 35.6 °F 30.6 °F 29.85 in North 1.7 mph -999.0 mph 82 % 0 in
10:42 38.5 °F 29.2 °F 29.86 in South 1.1 mph -999.0 mph 69 % 0 in
10:57 39.4 °F 28.6 °F 29.86 in Calm   -999.0 mph 65 % 0 in
11:12 37.9 °F 27.2 °F 29.86 in NNW 4.2 mph -999.0 mph 65 % 0 in
11:27 38.8 °F 29.1 °F 29.86 in NE 1.7 mph -999.0 mph 68 % 0 in
11:43 37.8 °F 28.9 °F 29.86 in SW 2.7 mph -999.0 mph 70 % 0 in
11:58 35.8 °F 29.6 °F 29.87 in SW 2.2 mph -999.0 mph 78 % 0 in
12:13 32.7 °F 27.8 °F 29.87 in ESE 1.1 mph -999.0 mph 82 % 0 in
12:28 34.2 °F 29.6 °F 29.87 in SSE 2.2 mph -999.0 mph 83 % 0 in
12:44 34.0 °F 29.4 °F 29.87 in South 2.2 mph -999.0 mph 83 % 0 in
12:59 34.0 °F 29.1 °F 29.87 in SSW 1.7 mph -999.0 mph 82 % 0 in
13:14 33.3 °F 28.7 °F 29.87 in Calm   -999.0 mph 83 % 0 in
13:29 31.8 °F 28.7 °F 29.87 in NNW 1.7 mph -999.0 mph 88 % 0 in
13:44 30.9 °F 28.0 °F 29.88 in NNW 4.7 mph -999.0 mph 89 % 0 in
14:00 30.4 °F 28.6 °F 29.87 in WSW 2.2 mph -999.0 mph 93 % 0 in
14:15 30.0 °F 28.0 °F 29.88 in South 1.1 mph -999.0 mph 92 % 0 in
14:30 30.7 °F 27.8 °F 29.88 in Calm   -999.0 mph 89 % 0 in
14:45 32.4 °F 29.2 °F 29.88 in NE 1.1 mph -999.0 mph 88 % 0 in
15:01 33.8 °F 30.1 °F 29.88 in Calm   -999.0 mph 86 % 0 in
15:16 34.2 °F 30.5 °F 29.87 in Calm   -999.0 mph 86 % 0 in
15:31 34.0 °F 30.3 °F 29.87 in North 1.7 mph -999.0 mph 86 % 0 in
15:46 34.3 °F 30.5 °F 29.87 in NE 2.2 mph -999.0 mph 86 % 0 in
16:01 34.0 °F 30.3 °F 29.87 in NW 3.2 mph -999.0 mph 86 % 0 in
16:17 34.7 °F 30.1 °F 29.87 in West 3.7 mph -999.0 mph 83 % 0 in
16:32 34.3 °F 29.7 °F 29.87 in NW 2.2 mph -999.0 mph 83 % 0 in
16:47 34.2 °F 30.5 °F 29.87 in WNW 4.2 mph -999.0 mph 86 % 0 in
17:03 35.1 °F 30.5 °F 29.87 in SE 2.7 mph -999.0 mph 83 % 0 in
17:18 35.8 °F 30.8 °F 29.87 in SSE 1.1 mph -999.0 mph 82 % 0 in
17:33 39.7 °F 31.4 °F 29.87 in North 3.7 mph -999.0 mph 72 % 0 in
17:48 41.5 °F 31.4 °F 29.87 in NW 1.7 mph -999.0 mph 67 % 0 in
18:03 38.7 °F 30.5 °F 29.88 in SE 3.2 mph -999.0 mph 72 % 0 in
18:19 35.1 °F 30.5 °F 29.88 in NNW 1.7 mph -999.0 mph 83 % 0 in
18:34 34.2 °F 29.6 °F 29.89 in Calm   -999.0 mph 83 % 0 in
18:50 33.1 °F 28.8 °F 29.89 in South 1.7 mph -999.0 mph 84 % 0 in
19:05 33.4 °F 29.4 °F 29.89 in South 1.7 mph -999.0 mph 85 % 0 in
19:20 32.7 °F 29.0 °F 29.89 in Calm   -999.0 mph 86 % 0 in
19:35 31.8 °F 28.1 °F 29.89 in Calm   -999.0 mph 86 % 0 in
19:50 31.1 °F 28.2 °F 29.90 in Calm   -999.0 mph 89 % 0 in
20:06 30.6 °F 27.7 °F 29.90 in Calm   -999.0 mph 89 % 0 in
20:21 30.2 °F 27.9 °F 29.91 in Calm   -999.0 mph 91 % 0 in
20:36 30.0 °F 27.7 °F 29.92 in South 2.7 mph -999.0 mph 91 % 0 in
20:51 29.7 °F 27.7 °F 29.92 in Calm   -999.0 mph 92 % 0 in
21:06 29.5 °F 27.2 °F 29.93 in SW 1.1 mph -999.0 mph 91 % 0 in
21:22 29.3 °F 27.0 °F 29.93 in Calm   -999.0 mph 91 % 0 in
21:37 28.9 °F 26.6 °F 29.93 in Calm   -999.0 mph 91 % 0 in
21:53 28.8 °F 26.8 °F 29.94 in Calm   -999.0 mph 92 % 0 in
22:08 28.8 °F 27.0 °F 29.94 in South 1.7 mph -999.0 mph 93 % 0 in
22:23 28.4 °F 26.4 °F 29.94 in Calm   -999.0 mph 92 % 0 in
22:38 28.0 °F 26.2 °F 29.94 in South 1.7 mph -999.0 mph 93 % 0 in
22:54 28.0 °F 26.2 °F 29.94 in South 1.7 mph -999.0 mph 93 % 0 in
23:09 28.0 °F 26.2 °F 29.94 in SSE 1.1 mph -999.0 mph 93 % 0 in
23:24 28.0 °F 26.2 °F 29.95 in South 2.7 mph -999.0 mph 93 % 0 in
23:39 27.9 °F 25.9 °F 29.94 in SSW 1.1 mph -999.0 mph 92 % 0 in
23:54 27.7 °F 25.7 °F 29.94 in Calm   -999.0 mph 92 % 0 in
Big Bear CA Weather
Compliments of Weather Underground - 1.5 mb